Terminal Aerodrome Forecast
Issued by NWS Louisville, KY

Home | Current Version | Previous Version | Text Only | Print | Product List | Glossary On
Versions: 1 2 3 4 5 6 7 8 9 10 11 12 13 14 15 16 17
208
FTUS43 KLMK 180208 AAA
TAFBWG
TAF AMD
KBWG 180208Z 1802/1824 29007KT P6SM OVC006
     FM180330 29005KT P6SM BKN023
     FM180500 31005KT P6SM SKC
     FM180900 VRB03KT 6SM BR FEW250
      TEMPO 1809/1813 4SM BR
     FM181300 VRB04KT P6SM SCT250
     FM181600 11007KT P6SM SCT200=

USA.gov is the U.S. government's official web portal to all federal, state and local government web resources and services.